Clinton Regional Airport


Codes: KCLK/CLK
Name: Clinton Regional Airport
City: Clinton
Country: United States
Elevation: 1616 ft.

Photos at Clinton Regional Airport


   Photos courtesy of SpottingLog. You can add your own sightings and photos by signing up for a free trial today.



No photos found.

Weather at Clinton Regional Airport


Time (UTC)DescriptionTempratureWindCloud coverageVisibilityPressureHumidity
18-Apr-2024 00:00Clear Sky31°C16 mph, S0%10000m1009hPa23%
18-Apr-2024 03:00Clear Sky28°C22 mph, SE0%10000m1009hPa37%
18-Apr-2024 06:00Clear Sky24°C22 mph, S0%10000m1008hPa61%
18-Apr-2024 09:00Clear Sky19°C18 mph, S0%10000m1007hPa92%
18-Apr-2024 12:00Clear Sky18°C9 mph, SW1%10000m1009hPa93%
18-Apr-2024 15:00Clear Sky16°C27 mph, N2%10000m1014hPa61%
18-Apr-2024 18:00Scattered Clouds17°C27 mph, N26%10000m1017hPa53%
18-Apr-2024 21:00Scattered Clouds20°C22 mph, N35%10000m1016hPa45%
19-Apr-2024 00:00Broken Clouds18°C18 mph, NE55%10000m1017hPa50%
19-Apr-2024 03:00Scattered Clouds13°C13 mph, NE39%10000m1020hPa62%
19-Apr-2024 06:00Scattered Clouds9°C9 mph, NE37%10000m1022hPa80%
19-Apr-2024 09:00Broken Clouds7°C9 mph, NE53%10000m1022hPa87%
19-Apr-2024 12:00Broken Clouds6°C9 mph, NE51%10000m1024hPa77%
19-Apr-2024 15:00Overcast Clouds12°C16 mph, NE100%10000m1024hPa40%
19-Apr-2024 18:00Overcast Clouds17°C13 mph, E100%10000m1021hPa30%
19-Apr-2024 21:00Overcast Clouds19°C11 mph, E100%10000m1018hPa31%
20-Apr-2024 00:00Overcast Clouds17°C11 mph, E100%10000m1018hPa38%
20-Apr-2024 03:00Overcast Clouds11°C11 mph, NE100%10000m1020hPa56%
20-Apr-2024 06:00Overcast Clouds12°C16 mph, NE95%10000m1021hPa54%
20-Apr-2024 09:00Overcast Clouds10°C16 mph, NE100%10000m1022hPa48%
20-Apr-2024 12:00Overcast Clouds9°C18 mph, NE100%10000m1025hPa50%
20-Apr-2024 15:00Overcast Clouds10°C18 mph, NE100%10000m1025hPa51%
20-Apr-2024 18:00Overcast Clouds12°C18 mph, NE100%10000m1024hPa51%
20-Apr-2024 21:00Overcast Clouds14°C16 mph, NE100%10000m1022hPa51%
21-Apr-2024 00:00Light Rain11°C11 mph, NE100%10000m1022hPa74%
21-Apr-2024 03:00Light Rain11°C9 mph, NE100%10000m1023hPa83%
21-Apr-2024 06:00Light Rain10°C11 mph, NE100%10000m1024hPa91%
21-Apr-2024 09:00Overcast Clouds9°C13 mph, NE100%10000m1024hPa92%
21-Apr-2024 12:00Overcast Clouds8°C11 mph, NE100%10000m1026hPa91%
21-Apr-2024 15:00Light Rain8°C9 mph, NE100%10000m1027hPa85%
21-Apr-2024 18:00Light Rain8°C9 mph, E100%10000m1026hPa83%
21-Apr-2024 21:00Overcast Clouds11°C7 mph, E99%10000m1024hPa66%
22-Apr-2024 00:00Overcast Clouds12°C4 mph, SE92%10000m1022hPa61%
22-Apr-2024 03:00Broken Clouds7°C7 mph, SE67%10000m1023hPa82%
22-Apr-2024 06:00Scattered Clouds6°C9 mph, S33%10000m1023hPa91%
22-Apr-2024 09:00Clear Sky5°C7 mph, S0%10000m1021hPa93%
22-Apr-2024 12:00Clear Sky6°C9 mph, S9%10000m1020hPa93%
22-Apr-2024 15:00Broken Clouds14°C16 mph, S74%10000m1018hPa65%
22-Apr-2024 18:00Broken Clouds20°C20 mph, S57%10000m1015hPa49%
22-Apr-2024 21:00Clear Sky23°C20 mph, SW0%10000m1011hPa43%